sensor_id;sensor_type;location;lat;lon;timestamp;P1;durP1;ratioP1;P2;durP2;ratioP2
12026;SDS011;6074;52.676;7.284;2022-08-03T00:01:02;0.60;;;0.60;;
12026;SDS011;6074;52.676;7.284;2022-08-03T00:03:29;0.80;;;0.80;;
12026;SDS011;6074;52.676;7.284;2022-08-03T00:05:56;0.80;;;0.80;;
12026;SDS011;6074;52.676;7.284;2022-08-03T00:08:24;0.70;;;0.70;;
12026;SDS011;6074;52.676;7.284;2022-08-03T00:10:51;0.70;;;0.70;;
12026;SDS011;6074;52.676;7.284;2022-08-03T00:13:18;0.60;;;0.60;;
12026;SDS011;6074;52.676;7.284;2022-08-03T00:15:45;0.60;;;0.60;;
12026;SDS011;6074;52.676;7.284;2022-08-03T00:18:12;0.70;;;0.70;;
12026;SDS011;6074;52.676;7.284;2022-08-03T00:20:39;0.60;;;0.60;;
12026;SDS011;6074;52.676;7.284;2022-08-03T00:23:06;0.67;;;0.67;;
12026;SDS011;6074;52.676;7.284;2022-08-03T00:25:35;0.63;;;0.63;;
12026;SDS011;6074;52.676;7.284;2022-08-03T00:28:02;0.67;;;0.67;;
12026;SDS011;6074;52.676;7.284;2022-08-03T00:30:29;0.60;;;0.60;;
12026;SDS011;6074;52.676;7.284;2022-08-03T00:32:57;0.60;;;0.60;;
12026;SDS011;6074;52.676;7.284;2022-08-03T00:35:24;0.70;;;0.70;;
12026;SDS011;6074;52.676;7.284;2022-08-03T00:37:51;0.60;;;0.60;;
12026;SDS011;6074;52.676;7.284;2022-08-03T00:40:18;0.70;;;0.70;;
12026;SDS011;6074;52.676;7.284;2022-08-03T00:42:50;0.70;;;0.70;;
12026;SDS011;6074;52.676;7.284;2022-08-03T00:45:19;0.70;;;0.70;;
12026;SDS011;6074;52.676;7.284;2022-08-03T00:47:47;0.70;;;0.70;;
12026;SDS011;6074;52.676;7.284;2022-08-03T00:50:14;0.70;;;0.70;;
12026;SDS011;6074;52.676;7.284;2022-08-03T00:52:42;0.70;;;0.70;;
12026;SDS011;6074;52.676;7.284;2022-08-03T00:55:10;0.70;;;0.70;;
12026;SDS011;6074;52.676;7.284;2022-08-03T00:57:37;0.70;;;0.70;;
12026;SDS011;6074;52.676;7.284;2022-08-03T01:00:06;0.60;;;0.60;;
12026;SDS011;6074;52.676;7.284;2022-08-03T01:02:35;0.70;;;0.70;;
12026;SDS011;6074;52.676;7.284;2022-08-03T01:05:02;0.70;;;0.70;;
12026;SDS011;6074;52.676;7.284;2022-08-03T01:07:34;0.63;;;0.63;;
12026;SDS011;6074;52.676;7.284;2022-08-03T01:10:09;0.60;;;0.60;;
12026;SDS011;6074;52.676;7.284;2022-08-03T01:12:43;0.70;;;0.70;;
12026;SDS011;6074;52.676;7.284;2022-08-03T01:15:21;0.70;;;0.70;;
12026;SDS011;6074;52.676;7.284;2022-08-03T01:17:54;0.70;;;0.70;;
12026;SDS011;6074;52.676;7.284;2022-08-03T01:20:24;0.70;;;0.70;;
12026;SDS011;6074;52.676;7.284;2022-08-03T01:22:59;0.70;;;0.70;;
12026;SDS011;6074;52.676;7.284;2022-08-03T01:25:38;0.70;;;0.70;;
12026;SDS011;6074;52.676;7.284;2022-08-03T01:28:21;0.70;;;0.70;;
12026;SDS011;6074;52.676;7.284;2022-08-03T01:31:00;0.60;;;0.60;;
12026;SDS011;6074;52.676;7.284;2022-08-03T01:33:34;0.60;;;0.60;;
12026;SDS011;6074;52.676;7.284;2022-08-03T01:36:04;0.70;;;0.70;;
12026;SDS011;6074;52.676;7.284;2022-08-03T01:38:33;0.70;;;0.70;;
12026;SDS011;6074;52.676;7.284;2022-08-03T01:41:03;0.70;;;0.70;;
12026;SDS011;6074;52.676;7.284;2022-08-03T01:43:37;0.77;;;0.77;;
12026;SDS011;6074;52.676;7.284;2022-08-03T01:46:08;0.60;;;0.60;;
12026;SDS011;6074;52.676;7.284;2022-08-03T01:48:37;0.60;;;0.60;;
12026;SDS011;6074;52.676;7.284;2022-08-03T01:51:07;0.60;;;0.60;;
12026;SDS011;6074;52.676;7.284;2022-08-03T01:53:35;0.60;;;0.60;;
12026;SDS011;6074;52.676;7.284;2022-08-03T01:56:06;0.57;;;0.57;;
12026;SDS011;6074;52.676;7.284;2022-08-03T01:58:35;0.70;;;0.70;;
12026;SDS011;6074;52.676;7.284;2022-08-03T02:01:04;0.60;;;0.60;;
12026;SDS011;6074;52.676;7.284;2022-08-03T02:03:35;0.57;;;0.57;;
12026;SDS011;6074;52.676;7.284;2022-08-03T02:06:03;0.67;;;0.67;;
12026;SDS011;6074;52.676;7.284;2022-08-03T02:08:31;0.60;;;0.60;;
12026;SDS011;6074;52.676;7.284;2022-08-03T02:10:59;0.60;;;0.60;;
12026;SDS011;6074;52.676;7.284;2022-08-03T02:13:27;0.80;;;0.80;;
12026;SDS011;6074;52.676;7.284;2022-08-03T02:15:55;0.60;;;0.60;;
12026;SDS011;6074;52.676;7.284;2022-08-03T02:18:23;0.70;;;0.70;;
12026;SDS011;6074;52.676;7.284;2022-08-03T02:20:51;0.60;;;0.60;;
12026;SDS011;6074;52.676;7.284;2022-08-03T02:23:19;0.60;;;0.60;;
12026;SDS011;6074;52.676;7.284;2022-08-03T02:25:47;0.70;;;0.70;;
12026;SDS011;6074;52.676;7.284;2022-08-03T02:28:18;0.70;;;0.70;;
12026;SDS011;6074;52.676;7.284;2022-08-03T02:30:49;0.60;;;0.60;;
12026;SDS011;6074;52.676;7.284;2022-08-03T02:33:20;0.63;;;0.63;;
12026;SDS011;6074;52.676;7.284;2022-08-03T02:35:53;0.70;;;0.70;;
12026;SDS011;6074;52.676;7.284;2022-08-03T02:38:22;0.60;;;0.60;;
12026;SDS011;6074;52.676;7.284;2022-08-03T02:40:53;0.67;;;0.67;;
12026;SDS011;6074;52.676;7.284;2022-08-03T02:43:22;0.63;;;0.63;;
12026;SDS011;6074;52.676;7.284;2022-08-03T02:45:50;0.60;;;0.60;;
12026;SDS011;6074;52.676;7.284;2022-08-03T02:48:20;0.70;;;0.70;;
12026;SDS011;6074;52.676;7.284;2022-08-03T02:50:50;0.70;;;0.70;;
12026;SDS011;6074;52.676;7.284;2022-08-03T02:53:21;0.60;;;0.60;;
12026;SDS011;6074;52.676;7.284;2022-08-03T02:55:49;0.60;;;0.60;;
12026;SDS011;6074;52.676;7.284;2022-08-03T02:58:17;0.70;;;0.70;;
12026;SDS011;6074;52.676;7.284;2022-08-03T03:00:45;0.77;;;0.77;;
12026;SDS011;6074;52.676;7.284;2022-08-03T03:03:13;0.60;;;0.60;;
12026;SDS011;6074;52.676;7.284;2022-08-03T03:05:40;0.60;;;0.60;;
12026;SDS011;6074;52.676;7.284;2022-08-03T03:08:09;0.70;;;0.70;;
12026;SDS011;6074;52.676;7.284;2022-08-03T03:10:39;0.70;;;0.70;;
12026;SDS011;6074;52.676;7.284;2022-08-03T03:13:06;0.60;;;0.60;;
12026;SDS011;6074;52.676;7.284;2022-08-03T03:15:35;0.70;;;0.70;;
12026;SDS011;6074;52.676;7.284;2022-08-03T03:18:04;0.70;;;0.70;;
12026;SDS011;6074;52.676;7.284;2022-08-03T03:20:31;0.60;;;0.60;;
12026;SDS011;6074;52.676;7.284;2022-08-03T03:22:59;0.60;;;0.60;;
12026;SDS011;6074;52.676;7.284;2022-08-03T03:25:28;0.70;;;0.70;;
12026;SDS011;6074;52.676;7.284;2022-08-03T03:27:57;0.70;;;0.70;;
12026;SDS011;6074;52.676;7.284;2022-08-03T03:30:24;0.70;;;0.70;;
12026;SDS011;6074;52.676;7.284;2022-08-03T03:32:52;0.70;;;0.70;;
12026;SDS011;6074;52.676;7.284;2022-08-03T03:35:19;0.60;;;0.60;;
12026;SDS011;6074;52.676;7.284;2022-08-03T03:37:46;0.50;;;0.50;;
12026;SDS011;6074;52.676;7.284;2022-08-03T03:40:13;0.60;;;0.60;;
12026;SDS011;6074;52.676;7.284;2022-08-03T03:42:41;0.70;;;0.70;;
12026;SDS011;6074;52.676;7.284;2022-08-03T03:45:08;0.63;;;0.63;;
12026;SDS011;6074;52.676;7.284;2022-08-03T03:47:36;0.80;;;0.80;;
12026;SDS011;6074;52.676;7.284;2022-08-03T03:50:04;0.70;;;0.70;;
12026;SDS011;6074;52.676;7.284;2022-08-03T03:52:32;0.80;;;0.80;;
12026;SDS011;6074;52.676;7.284;2022-08-03T03:54:59;0.60;;;0.60;;
12026;SDS011;6074;52.676;7.284;2022-08-03T03:57:26;0.70;;;0.70;;
12026;SDS011;6074;52.676;7.284;2022-08-03T03:59:55;0.60;;;0.60;;
12026;SDS011;6074;52.676;7.284;2022-08-03T04:02:21;0.60;;;0.60;;
12026;SDS011;6074;52.676;7.284;2022-08-03T04:04:48;0.60;;;0.60;;
12026;SDS011;6074;52.676;7.284;2022-08-03T04:07:35;0.70;;;0.70;;
12026;SDS011;6074;52.676;7.284;2022-08-03T04:10:28;0.63;;;0.63;;
12026;SDS011;6074;52.676;7.284;2022-08-03T04:13:16;0.50;;;0.50;;
12026;SDS011;6074;52.676;7.284;2022-08-03T04:15:47;0.70;;;0.70;;
12026;SDS011;6074;52.676;7.284;2022-08-03T04:18:15;0.60;;;0.60;;
12026;SDS011;6074;52.676;7.284;2022-08-03T04:20:44;0.70;;;0.70;;
12026;SDS011;6074;52.676;7.284;2022-08-03T04:23:14;0.70;;;0.70;;
12026;SDS011;6074;52.676;7.284;2022-08-03T04:25:42;0.60;;;0.60;;
12026;SDS011;6074;52.676;7.284;2022-08-03T04:28:11;0.70;;;0.70;;
12026;SDS011;6074;52.676;7.284;2022-08-03T04:30:38;0.60;;;0.60;;
12026;SDS011;6074;52.676;7.284;2022-08-03T04:33:12;0.63;;;0.63;;
12026;SDS011;6074;52.676;7.284;2022-08-03T04:35:41;0.60;;;0.60;;
12026;SDS011;6074;52.676;7.284;2022-08-03T04:38:12;0.50;;;0.50;;
12026;SDS011;6074;52.676;7.284;2022-08-03T04:40:40;0.70;;;0.70;;
12026;SDS011;6074;52.676;7.284;2022-08-03T04:43:09;0.50;;;0.50;;
12026;SDS011;6074;52.676;7.284;2022-08-03T04:45:38;0.60;;;0.60;;
12026;SDS011;6074;52.676;7.284;2022-08-03T04:48:05;0.63;;;0.63;;
12026;SDS011;6074;52.676;7.284;2022-08-03T04:50:34;0.70;;;0.70;;
12026;SDS011;6074;52.676;7.284;2022-08-03T04:53:01;0.60;;;0.60;;
12026;SDS011;6074;52.676;7.284;2022-08-03T04:55:28;0.63;;;0.63;;
12026;SDS011;6074;52.676;7.284;2022-08-03T04:57:55;0.60;;;0.60;;
12026;SDS011;6074;52.676;7.284;2022-08-03T05:00:23;0.70;;;0.70;;
12026;SDS011;6074;52.676;7.284;2022-08-03T05:02:50;0.67;;;0.67;;
12026;SDS011;6074;52.676;7.284;2022-08-03T05:05:18;0.60;;;0.60;;
12026;SDS011;6074;52.676;7.284;2022-08-03T05:07:47;0.70;;;0.70;;
12026;SDS011;6074;52.676;7.284;2022-08-03T05:10:15;0.60;;;0.60;;
12026;SDS011;6074;52.676;7.284;2022-08-03T05:12:42;0.70;;;0.70;;
12026;SDS011;6074;52.676;7.284;2022-08-03T05:15:10;0.60;;;0.60;;
12026;SDS011;6074;52.676;7.284;2022-08-03T05:17:37;0.60;;;0.60;;
12026;SDS011;6074;52.676;7.284;2022-08-03T05:20:04;0.60;;;0.60;;
12026;SDS011;6074;52.676;7.284;2022-08-03T05:22:31;0.60;;;0.60;;
12026;SDS011;6074;52.676;7.284;2022-08-03T05:25:00;0.67;;;0.67;;
12026;SDS011;6074;52.676;7.284;2022-08-03T05:27:27;0.70;;;0.70;;
12026;SDS011;6074;52.676;7.284;2022-08-03T05:29:54;0.60;;;0.60;;
12026;SDS011;6074;52.676;7.284;2022-08-03T05:32:21;0.70;;;0.70;;
12026;SDS011;6074;52.676;7.284;2022-08-03T05:34:48;0.60;;;0.60;;
12026;SDS011;6074;52.676;7.284;2022-08-03T05:37:15;0.50;;;0.50;;
12026;SDS011;6074;52.676;7.284;2022-08-03T05:39:42;0.70;;;0.70;;
12026;SDS011;6074;52.676;7.284;2022-08-03T05:42:10;0.60;;;0.60;;
12026;SDS011;6074;52.676;7.284;2022-08-03T05:44:40;0.60;;;0.60;;
12026;SDS011;6074;52.676;7.284;2022-08-03T05:47:07;0.60;;;0.60;;
12026;SDS011;6074;52.676;7.284;2022-08-03T05:49:33;0.80;;;0.80;;
12026;SDS011;6074;52.676;7.284;2022-08-03T05:52:00;0.70;;;0.70;;
12026;SDS011;6074;52.676;7.284;2022-08-03T05:54:28;0.60;;;0.60;;
12026;SDS011;6074;52.676;7.284;2022-08-03T05:56:55;0.63;;;0.63;;
12026;SDS011;6074;52.676;7.284;2022-08-03T05:59:23;0.60;;;0.60;;
12026;SDS011;6074;52.676;7.284;2022-08-03T06:01:50;0.60;;;0.60;;
12026;SDS011;6074;52.676;7.284;2022-08-03T06:04:17;0.60;;;0.60;;
12026;SDS011;6074;52.676;7.284;2022-08-03T06:06:44;0.50;;;0.50;;
12026;SDS011;6074;52.676;7.284;2022-08-03T06:09:12;0.70;;;0.70;;
12026;SDS011;6074;52.676;7.284;2022-08-03T06:11:39;0.70;;;0.70;;
12026;SDS011;6074;52.676;7.284;2022-08-03T06:14:06;0.70;;;0.70;;
12026;SDS011;6074;52.676;7.284;2022-08-03T06:16:35;0.60;;;0.60;;
12026;SDS011;6074;52.676;7.284;2022-08-03T06:19:01;0.60;;;0.60;;
12026;SDS011;6074;52.676;7.284;2022-08-03T06:21:28;0.60;;;0.60;;
12026;SDS011;6074;52.676;7.284;2022-08-03T06:23:55;0.60;;;0.60;;
12026;SDS011;6074;52.676;7.284;2022-08-03T06:26:23;0.70;;;0.70;;
12026;SDS011;6074;52.676;7.284;2022-08-03T06:28:51;0.50;;;0.50;;
12026;SDS011;6074;52.676;7.284;2022-08-03T06:31:18;0.67;;;0.67;;
12026;SDS011;6074;52.676;7.284;2022-08-03T06:33:48;0.60;;;0.60;;
12026;SDS011;6074;52.676;7.284;2022-08-03T06:36:14;0.60;;;0.60;;
12026;SDS011;6074;52.676;7.284;2022-08-03T06:38:41;0.60;;;0.60;;
12026;SDS011;6074;52.676;7.284;2022-08-03T06:41:08;0.70;;;0.70;;
12026;SDS011;6074;52.676;7.284;2022-08-03T06:43:35;0.70;;;0.70;;
12026;SDS011;6074;52.676;7.284;2022-08-03T06:46:03;0.70;;;0.70;;
12026;SDS011;6074;52.676;7.284;2022-08-03T06:48:30;0.70;;;0.70;;
12026;SDS011;6074;52.676;7.284;2022-08-03T06:50:58;0.70;;;0.70;;
12026;SDS011;6074;52.676;7.284;2022-08-03T06:53:25;0.60;;;0.60;;
12026;SDS011;6074;52.676;7.284;2022-08-03T06:55:52;0.50;;;0.50;;
12026;SDS011;6074;52.676;7.284;2022-08-03T06:58:19;0.70;;;0.70;;
12026;SDS011;6074;52.676;7.284;2022-08-03T07:00:46;0.60;;;0.60;;
12026;SDS011;6074;52.676;7.284;2022-08-03T07:03:13;0.70;;;0.70;;
12026;SDS011;6074;52.676;7.284;2022-08-03T07:05:40;0.60;;;0.60;;
12026;SDS011;6074;52.676;7.284;2022-08-03T07:08:08;0.80;;;0.80;;
12026;SDS011;6074;52.676;7.284;2022-08-03T07:10:35;0.60;;;0.60;;
12026;SDS011;6074;52.676;7.284;2022-08-03T07:13:02;0.70;;;0.70;;
12026;SDS011;6074;52.676;7.284;2022-08-03T07:15:29;0.67;;;0.67;;
12026;SDS011;6074;52.676;7.284;2022-08-03T07:17:56;0.70;;;0.70;;
12026;SDS011;6074;52.676;7.284;2022-08-03T07:20:23;0.60;;;0.60;;
12026;SDS011;6074;52.676;7.284;2022-08-03T07:22:51;0.70;;;0.70;;
12026;SDS011;6074;52.676;7.284;2022-08-03T07:25:19;0.60;;;0.60;;
12026;SDS011;6074;52.676;7.284;2022-08-03T07:27:46;0.60;;;0.60;;
12026;SDS011;6074;52.676;7.284;2022-08-03T07:30:14;0.70;;;0.70;;
12026;SDS011;6074;52.676;7.284;2022-08-03T07:32:41;0.60;;;0.60;;
12026;SDS011;6074;52.676;7.284;2022-08-03T07:35:08;0.60;;;0.60;;
12026;SDS011;6074;52.676;7.284;2022-08-03T07:37:35;0.70;;;0.70;;
12026;SDS011;6074;52.676;7.284;2022-08-03T07:40:03;0.77;;;0.77;;
12026;SDS011;6074;52.676;7.284;2022-08-03T07:42:32;0.70;;;0.70;;
12026;SDS011;6074;52.676;7.284;2022-08-03T07:44:59;0.60;;;0.60;;
12026;SDS011;6074;52.676;7.284;2022-08-03T07:47:26;0.70;;;0.70;;
12026;SDS011;6074;52.676;7.284;2022-08-03T07:49:54;0.77;;;0.77;;
12026;SDS011;6074;52.676;7.284;2022-08-03T07:52:21;0.60;;;0.60;;
12026;SDS011;6074;52.676;7.284;2022-08-03T07:55:06;0.77;;;0.77;;
12026;SDS011;6074;52.676;7.284;2022-08-03T07:57:35;0.70;;;0.70;;
12026;SDS011;6074;52.676;7.284;2022-08-03T08:00:02;0.70;;;0.70;;
12026;SDS011;6074;52.676;7.284;2022-08-03T08:02:31;0.80;;;0.80;;
12026;SDS011;6074;52.676;7.284;2022-08-03T08:04:58;0.70;;;0.70;;
12026;SDS011;6074;52.676;7.284;2022-08-03T08:07:25;0.70;;;0.70;;
12026;SDS011;6074;52.676;7.284;2022-08-03T08:09:51;0.60;;;0.60;;
12026;SDS011;6074;52.676;7.284;2022-08-03T08:12:18;0.60;;;0.60;;
12026;SDS011;6074;52.676;7.284;2022-08-03T08:14:47;0.60;;;0.60;;
12026;SDS011;6074;52.676;7.284;2022-08-03T08:17:14;0.70;;;0.70;;
12026;SDS011;6074;52.676;7.284;2022-08-03T08:19:41;0.60;;;0.60;;
12026;SDS011;6074;52.676;7.284;2022-08-03T08:22:08;0.60;;;0.60;;
12026;SDS011;6074;52.676;7.284;2022-08-03T08:24:34;0.70;;;0.70;;
12026;SDS011;6074;52.676;7.284;2022-08-03T08:27:01;0.80;;;0.80;;
12026;SDS011;6074;52.676;7.284;2022-08-03T08:29:28;0.60;;;0.60;;
12026;SDS011;6074;52.676;7.284;2022-08-03T08:31:57;0.70;;;0.70;;
12026;SDS011;6074;52.676;7.284;2022-08-03T08:34:23;0.60;;;0.60;;
12026;SDS011;6074;52.676;7.284;2022-08-03T08:36:50;0.80;;;0.80;;
12026;SDS011;6074;52.676;7.284;2022-08-03T08:39:18;0.70;;;0.70;;
12026;SDS011;6074;52.676;7.284;2022-08-03T08:41:45;0.70;;;0.70;;
12026;SDS011;6074;52.676;7.284;2022-08-03T08:44:11;0.80;;;0.80;;
12026;SDS011;6074;52.676;7.284;2022-08-03T08:46:38;0.70;;;0.70;;
12026;SDS011;6074;52.676;7.284;2022-08-03T08:49:07;0.70;;;0.70;;
12026;SDS011;6074;52.676;7.284;2022-08-03T08:51:35;0.60;;;0.60;;
12026;SDS011;6074;52.676;7.284;2022-08-03T08:54:06;0.60;;;0.60;;
12026;SDS011;6074;52.676;7.284;2022-08-03T08:56:34;0.80;;;0.80;;
12026;SDS011;6074;52.676;7.284;2022-08-03T08:59:02;0.77;;;0.77;;
12026;SDS011;6074;52.676;7.284;2022-08-03T09:01:29;0.70;;;0.70;;
12026;SDS011;6074;52.676;7.284;2022-08-03T09:03:56;0.60;;;0.60;;
12026;SDS011;6074;52.676;7.284;2022-08-03T09:06:24;0.60;;;0.60;;
12026;SDS011;6074;52.676;7.284;2022-08-03T09:08:51;0.60;;;0.60;;
12026;SDS011;6074;52.676;7.284;2022-08-03T09:11:22;0.60;;;0.60;;
12026;SDS011;6074;52.676;7.284;2022-08-03T09:13:49;0.67;;;0.67;;
12026;SDS011;6074;52.676;7.284;2022-08-03T09:16:16;0.77;;;0.77;;
12026;SDS011;6074;52.676;7.284;2022-08-03T09:18:46;0.63;;;0.63;;
12026;SDS011;6074;52.676;7.284;2022-08-03T09:21:15;0.70;;;0.70;;
12026;SDS011;6074;52.676;7.284;2022-08-03T09:23:48;0.60;;;0.60;;
12026;SDS011;6074;52.676;7.284;2022-08-03T09:26:20;0.90;;;0.90;;
12026;SDS011;6074;52.676;7.284;2022-08-03T09:28:53;0.70;;;0.70;;
12026;SDS011;6074;52.676;7.284;2022-08-03T09:31:31;0.70;;;0.70;;
12026;SDS011;6074;52.676;7.284;2022-08-03T09:34:02;0.77;;;0.77;;
12026;SDS011;6074;52.676;7.284;2022-08-03T09:36:33;0.70;;;0.70;;
12026;SDS011;6074;52.676;7.284;2022-08-03T09:39:02;0.80;;;0.80;;
12026;SDS011;6074;52.676;7.284;2022-08-03T09:41:30;0.70;;;0.70;;
12026;SDS011;6074;52.676;7.284;2022-08-03T09:43:58;0.70;;;0.70;;
12026;SDS011;6074;52.676;7.284;2022-08-03T09:46:25;0.85;;;0.85;;
12026;SDS011;6074;52.676;7.284;2022-08-03T09:49:07;0.88;;;0.88;;
12026;SDS011;6074;52.676;7.284;2022-08-03T09:51:35;0.80;;;0.80;;
12026;SDS011;6074;52.676;7.284;2022-08-03T09:54:04;0.80;;;0.80;;
12026;SDS011;6074;52.676;7.284;2022-08-03T09:56:41;1.00;;;1.00;;
12026;SDS011;6074;52.676;7.284;2022-08-03T09:59:11;0.80;;;0.80;;
12026;SDS011;6074;52.676;7.284;2022-08-03T10:01:39;0.80;;;0.80;;
12026;SDS011;6074;52.676;7.284;2022-08-03T10:04:10;0.90;;;0.90;;
12026;SDS011;6074;52.676;7.284;2022-08-03T10:06:39;0.93;;;0.93;;
12026;SDS011;6074;52.676;7.284;2022-08-03T10:09:08;0.90;;;0.90;;
12026;SDS011;6074;52.676;7.284;2022-08-03T10:11:37;0.80;;;0.80;;
12026;SDS011;6074;52.676;7.284;2022-08-03T10:14:05;0.90;;;0.90;;
12026;SDS011;6074;52.676;7.284;2022-08-03T10:16:34;1.00;;;1.00;;
12026;SDS011;6074;52.676;7.284;2022-08-03T10:19:02;1.00;;;1.00;;
12026;SDS011;6074;52.676;7.284;2022-08-03T10:21:31;0.80;;;0.80;;
12026;SDS011;6074;52.676;7.284;2022-08-03T10:24:01;1.15;;;1.15;;
12026;SDS011;6074;52.676;7.284;2022-08-03T10:26:31;0.90;;;0.90;;
12026;SDS011;6074;52.676;7.284;2022-08-03T10:28:59;0.90;;;0.90;;
12026;SDS011;6074;52.676;7.284;2022-08-03T10:31:30;0.90;;;0.90;;
12026;SDS011;6074;52.676;7.284;2022-08-03T10:34:03;1.10;;;1.10;;
12026;SDS011;6074;52.676;7.284;2022-08-03T10:36:32;1.40;;;1.40;;
12026;SDS011;6074;52.676;7.284;2022-08-03T10:39:00;1.20;;;1.20;;
12026;SDS011;6074;52.676;7.284;2022-08-03T10:41:31;1.10;;;1.10;;
12026;SDS011;6074;52.676;7.284;2022-08-03T10:44:04;1.10;;;1.10;;
12026;SDS011;6074;52.676;7.284;2022-08-03T10:46:33;1.10;;;1.10;;
12026;SDS011;6074;52.676;7.284;2022-08-03T10:49:02;1.10;;;1.10;;
12026;SDS011;6074;52.676;7.284;2022-08-03T10:51:29;1.20;;;1.20;;
12026;SDS011;6074;52.676;7.284;2022-08-03T10:53:57;1.20;;;1.20;;
12026;SDS011;6074;52.676;7.284;2022-08-03T10:56:37;1.20;;;1.20;;
12026;SDS011;6074;52.676;7.284;2022-08-03T11:05:30;1.20;;;1.20;;
12026;SDS011;6074;52.676;7.284;2022-08-03T11:08:21;1.20;;;1.20;;
12026;SDS011;6074;52.676;7.284;2022-08-03T11:10:49;1.40;;;1.40;;
12026;SDS011;6074;52.676;7.284;2022-08-03T11:13:19;1.40;;;1.40;;
12026;SDS011;6074;52.676;7.284;2022-08-03T11:15:48;1.17;;;1.17;;
12026;SDS011;6074;52.676;7.284;2022-08-03T11:18:17;1.10;;;1.10;;
12026;SDS011;6074;52.676;7.284;2022-08-03T11:20:45;1.10;;;1.10;;
12026;SDS011;6074;52.676;7.284;2022-08-03T11:23:12;1.10;;;1.10;;
12026;SDS011;6074;52.676;7.284;2022-08-03T11:28:39;1.30;;;1.30;;
12026;SDS011;6074;52.676;7.284;2022-08-03T11:34:12;1.20;;;1.20;;
12026;SDS011;6074;52.676;7.284;2022-08-03T11:39:48;1.20;;;1.20;;
12026;SDS011;6074;52.676;7.284;2022-08-03T11:45:09;1.20;;;1.20;;
12026;SDS011;6074;52.676;7.284;2022-08-03T11:47:37;1.20;;;1.20;;
12026;SDS011;6074;52.676;7.284;2022-08-03T11:50:05;1.30;;;1.30;;
12026;SDS011;6074;52.676;7.284;2022-08-03T11:52:34;1.20;;;1.20;;
12026;SDS011;6074;52.676;7.284;2022-08-03T11:55:09;1.20;;;1.20;;
12026;SDS011;6074;52.676;7.284;2022-08-03T11:57:37;1.20;;;1.20;;
12026;SDS011;6074;52.676;7.284;2022-08-03T12:00:19;1.20;;;1.20;;
12026;SDS011;6074;52.676;7.284;2022-08-03T12:02:54;1.30;;;1.30;;
12026;SDS011;6074;52.676;7.284;2022-08-03T12:05:35;1.30;;;1.30;;
12026;SDS011;6074;52.676;7.284;2022-08-03T12:08:04;1.30;;;1.30;;
12026;SDS011;6074;52.676;7.284;2022-08-03T12:10:31;1.10;;;1.10;;
12026;SDS011;6074;52.676;7.284;2022-08-03T12:12:59;1.20;;;1.20;;
12026;SDS011;6074;52.676;7.284;2022-08-03T12:15:31;1.10;;;1.10;;
12026;SDS011;6074;52.676;7.284;2022-08-03T12:17:59;1.30;;;1.30;;
12026;SDS011;6074;52.676;7.284;2022-08-03T12:20:27;1.20;;;1.20;;
12026;SDS011;6074;52.676;7.284;2022-08-03T12:23:00;1.40;;;1.40;;
12026;SDS011;6074;52.676;7.284;2022-08-03T12:25:29;1.42;;;1.42;;
12026;SDS011;6074;52.676;7.284;2022-08-03T12:28:05;1.20;;;1.20;;
12026;SDS011;6074;52.676;7.284;2022-08-03T12:30:36;1.20;;;1.20;;
12026;SDS011;6074;52.676;7.284;2022-08-03T12:33:11;1.20;;;1.20;;
12026;SDS011;6074;52.676;7.284;2022-08-03T12:35:44;1.30;;;1.30;;
12026;SDS011;6074;52.676;7.284;2022-08-03T12:38:11;1.20;;;1.20;;
12026;SDS011;6074;52.676;7.284;2022-08-03T12:40:38;1.20;;;1.20;;
12026;SDS011;6074;52.676;7.284;2022-08-03T12:43:11;1.20;;;1.20;;
12026;SDS011;6074;52.676;7.284;2022-08-03T12:45:40;1.10;;;1.10;;
12026;SDS011;6074;52.676;7.284;2022-08-03T12:48:08;1.00;;;1.00;;
12026;SDS011;6074;52.676;7.284;2022-08-03T12:50:36;1.10;;;1.10;;
12026;SDS011;6074;52.676;7.284;2022-08-03T12:53:05;1.30;;;1.30;;
12026;SDS011;6074;52.676;7.284;2022-08-03T12:55:34;1.20;;;1.20;;
12026;SDS011;6074;52.676;7.284;2022-08-03T12:58:01;1.20;;;1.20;;
12026;SDS011;6074;52.676;7.284;2022-08-03T13:00:28;1.20;;;1.20;;
12026;SDS011;6074;52.676;7.284;2022-08-03T13:03:00;1.10;;;1.10;;
12026;SDS011;6074;52.676;7.284;2022-08-03T13:05:29;1.10;;;1.10;;
12026;SDS011;6074;52.676;7.284;2022-08-03T13:07:55;1.10;;;1.10;;
12026;SDS011;6074;52.676;7.284;2022-08-03T13:10:26;1.20;;;1.20;;
12026;SDS011;6074;52.676;7.284;2022-08-03T13:12:55;1.10;;;1.10;;
12026;SDS011;6074;52.676;7.284;2022-08-03T13:15:24;1.20;;;1.20;;
12026;SDS011;6074;52.676;7.284;2022-08-03T13:17:52;1.10;;;1.10;;
12026;SDS011;6074;52.676;7.284;2022-08-03T13:20:20;1.13;;;1.13;;
12026;SDS011;6074;52.676;7.284;2022-08-03T13:22:47;1.10;;;1.10;;
12026;SDS011;6074;52.676;7.284;2022-08-03T13:25:15;1.20;;;1.20;;
12026;SDS011;6074;52.676;7.284;2022-08-03T13:27:42;1.20;;;1.20;;
12026;SDS011;6074;52.676;7.284;2022-08-03T13:30:09;1.20;;;1.20;;
12026;SDS011;6074;52.676;7.284;2022-08-03T13:32:36;1.20;;;1.20;;
12026;SDS011;6074;52.676;7.284;2022-08-03T13:35:04;1.00;;;1.00;;
12026;SDS011;6074;52.676;7.284;2022-08-03T13:37:32;1.00;;;1.00;;
12026;SDS011;6074;52.676;7.284;2022-08-03T13:40:00;1.10;;;1.10;;
12026;SDS011;6074;52.676;7.284;2022-08-03T13:42:29;1.00;;;1.00;;
12026;SDS011;6074;52.676;7.284;2022-08-03T13:44:56;1.10;;;1.10;;
12026;SDS011;6074;52.676;7.284;2022-08-03T13:47:24;1.00;;;1.00;;
12026;SDS011;6074;52.676;7.284;2022-08-03T13:49:51;1.00;;;1.00;;
12026;SDS011;6074;52.676;7.284;2022-08-03T13:52:18;1.00;;;1.00;;
12026;SDS011;6074;52.676;7.284;2022-08-03T13:54:46;1.10;;;1.10;;
12026;SDS011;6074;52.676;7.284;2022-08-03T13:57:12;1.10;;;1.10;;
12026;SDS011;6074;52.676;7.284;2022-08-03T13:59:40;1.10;;;1.10;;
12026;SDS011;6074;52.676;7.284;2022-08-03T14:02:07;1.20;;;1.20;;
12026;SDS011;6074;52.676;7.284;2022-08-03T14:04:34;1.20;;;1.20;;
12026;SDS011;6074;52.676;7.284;2022-08-03T14:07:01;1.10;;;1.10;;
12026;SDS011;6074;52.676;7.284;2022-08-03T14:09:28;1.00;;;1.00;;
12026;SDS011;6074;52.676;7.284;2022-08-03T14:11:56;1.00;;;1.00;;
12026;SDS011;6074;52.676;7.284;2022-08-03T14:14:23;1.10;;;1.10;;
12026;SDS011;6074;52.676;7.284;2022-08-03T14:16:50;1.10;;;1.10;;
12026;SDS011;6074;52.676;7.284;2022-08-03T14:19:17;1.00;;;1.00;;
12026;SDS011;6074;52.676;7.284;2022-08-03T14:21:44;1.00;;;1.00;;
12026;SDS011;6074;52.676;7.284;2022-08-03T14:24:11;0.95;;;0.95;;
12026;SDS011;6074;52.676;7.284;2022-08-03T14:26:38;1.00;;;1.00;;
12026;SDS011;6074;52.676;7.284;2022-08-03T14:29:06;1.10;;;1.10;;
12026;SDS011;6074;52.676;7.284;2022-08-03T14:31:33;1.00;;;1.00;;
12026;SDS011;6074;52.676;7.284;2022-08-03T14:33:59;1.10;;;1.10;;
12026;SDS011;6074;52.676;7.284;2022-08-03T14:36:26;1.00;;;1.00;;
12026;SDS011;6074;52.676;7.284;2022-08-03T14:38:53;1.02;;;1.02;;
12026;SDS011;6074;52.676;7.284;2022-08-03T14:41:20;1.00;;;1.00;;
12026;SDS011;6074;52.676;7.284;2022-08-03T14:43:47;1.10;;;1.10;;
12026;SDS011;6074;52.676;7.284;2022-08-03T14:46:16;0.90;;;0.90;;
12026;SDS011;6074;52.676;7.284;2022-08-03T14:48:42;1.00;;;1.00;;
12026;SDS011;6074;52.676;7.284;2022-08-03T14:51:09;0.90;;;0.90;;
12026;SDS011;6074;52.676;7.284;2022-08-03T14:53:36;1.00;;;1.00;;
12026;SDS011;6074;52.676;7.284;2022-08-03T14:56:04;1.00;;;1.00;;
12026;SDS011;6074;52.676;7.284;2022-08-03T14:58:30;0.90;;;0.90;;
12026;SDS011;6074;52.676;7.284;2022-08-03T15:00:58;0.90;;;0.90;;
12026;SDS011;6074;52.676;7.284;2022-08-03T15:03:26;0.90;;;0.90;;
12026;SDS011;6074;52.676;7.284;2022-08-03T15:05:53;1.00;;;1.00;;
12026;SDS011;6074;52.676;7.284;2022-08-03T15:08:21;1.00;;;1.00;;
12026;SDS011;6074;52.676;7.284;2022-08-03T15:10:49;0.90;;;0.90;;
12026;SDS011;6074;52.676;7.284;2022-08-03T15:13:17;1.00;;;1.00;;
12026;SDS011;6074;52.676;7.284;2022-08-03T15:15:44;1.10;;;1.10;;
12026;SDS011;6074;52.676;7.284;2022-08-03T15:18:11;1.00;;;1.00;;
12026;SDS011;6074;52.676;7.284;2022-08-03T15:20:40;1.00;;;1.00;;
12026;SDS011;6074;52.676;7.284;2022-08-03T15:23:06;1.15;;;1.15;;
12026;SDS011;6074;52.676;7.284;2022-08-03T15:25:33;0.90;;;0.90;;
12026;SDS011;6074;52.676;7.284;2022-08-03T15:28:01;0.90;;;0.90;;